Time;durP1;ratioP1;P1;durP2;ratioP2;P2;SDS_P1;SDS_P2;PMS_P1;PMS_P2;Temp;Humidity;BMP_temperature;BMP_pressure;BME280_temperature;BME280_humidity;BME280_pressure;Samples;Min_cycle;Max_cycle;Signal;HPM_P1;HPM_P2
2022/09/08 00:00:26;;;;;;;35.00;30.80;;;17.80;99.90;;;;;;2132858;27;20023;-75
2022/09/08 00:01:27;;;;;;;33.22;29.63;;;17.80;99.90;;;;;;2131717;27;20034;-76
2022/09/08 00:02:28;;;;;;;34.30;30.15;;;17.80;99.90;;;;;;2132691;27;20475;-75
2022/09/08 00:03:30;;;;;;;32.97;29.42;;;17.80;99.90;;;;;;2133999;27;20023;-76
2022/09/08 00:04:31;;;;;;;33.13;29.17;;;17.70;99.90;;;;;;2133882;27;20456;-75
2022/09/08 00:05:36;;;;;;;32.45;28.70;;;17.70;99.90;;;;;;2123353;27;20031;-76
2022/09/08 00:06:37;;;;;;;31.75;28.05;;;17.70;99.90;;;;;;2125978;27;20103;-75
2022/09/08 00:07:38;;;;;;;31.65;28.25;;;17.70;99.90;;;;;;2126641;27;20027;-75
2022/09/08 00:08:39;;;;;;;31.35;28.02;;;17.70;99.90;;;;;;2126598;27;20094;-76
2022/09/08 00:09:40;;;;;;;30.52;27.23;;;17.70;99.90;;;;;;2125494;27;20023;-76
2022/09/08 00:10:41;;;;;;;32.13;28.27;;;17.70;99.90;;;;;;2125983;27;20099;-76
2022/09/08 00:11:42;;;;;;;33.58;28.55;;;17.70;99.90;;;;;;2127408;27;20111;-76
2022/09/08 00:12:43;;;;;;;32.50;29.00;;;17.70;99.90;;;;;;2128172;27;20031;-75
2022/09/08 00:13:45;;;;;;;33.85;29.67;;;17.70;99.90;;;;;;2120432;28;20059;-75
2022/09/08 00:14:46;;;;;;;31.92;28.35;;;17.70;99.90;;;;;;2119211;28;20032;-76
2022/09/08 00:15:47;;;;;;;32.92;28.98;;;17.60;99.90;;;;;;2126786;27;20089;-76
2022/09/08 00:16:47;;;;;;;34.67;28.75;;;17.70;99.90;;;;;;2126263;27;20730;-76
2022/09/08 00:17:49;;;;;;;33.58;29.13;;;17.60;99.90;;;;;;2124441;27;20019;-76
2022/09/08 00:18:51;;;;;;;32.17;28.73;;;17.60;99.90;;;;;;2124214;27;20413;-76
2022/09/08 00:19:52;;;;;;;31.35;27.95;;;17.60;99.90;;;;;;2123588;27;20027;-76
2022/09/08 00:20:52;;;;;;;33.58;28.48;;;17.60;99.90;;;;;;2115448;28;20023;-76
2022/09/08 00:21:53;;;;;;;33.78;29.27;;;17.60;99.90;;;;;;2123937;27;20027;-75
2022/09/08 00:22:54;;;;;;;33.63;29.40;;;17.60;99.90;;;;;;2123010;27;20047;-75
2022/09/08 00:23:54;;;;;;;34.80;28.75;;;17.60;99.90;;;;;;2122975;27;20623;-76
2022/09/08 00:24:55;;;;;;;32.17;28.13;;;17.60;99.90;;;;;;2122672;27;20099;-75
2022/09/08 00:25:56;;;;;;;30.33;27.13;;;17.60;99.90;;;;;;2113961;28;20124;-76
2022/09/08 00:26:56;;;;;;;31.10;27.65;;;17.50;99.90;;;;;;2122389;27;20795;-75
2022/09/08 00:27:57;;;;;;;30.70;27.40;;;17.50;99.90;;;;;;2122881;27;20108;-76
2022/09/08 00:28:58;;;;;;;31.50;27.92;;;17.50;99.90;;;;;;2122968;27;20393;-75
2022/09/08 00:29:58;;;;;;;30.05;26.85;;;17.50;99.90;;;;;;2122977;27;20105;-77
2022/09/08 00:30:59;;;;;;;30.85;27.35;;;17.50;99.90;;;;;;2122897;27;20023;-76
2022/09/08 00:32:01;;;;;;;31.48;28.05;;;17.50;99.90;;;;;;2122277;27;20042;-76
2022/09/08 00:33:01;;;;;;;32.00;27.83;;;17.50;99.90;;;;;;2122200;27;20023;-76
2022/09/08 00:34:02;;;;;;;31.35;27.95;;;17.50;99.90;;;;;;2122161;27;20023;-77
2022/09/08 00:35:07;;;;;;;31.20;27.90;;;17.50;99.90;;;;;;2113417;28;20019;-76
2022/09/08 00:36:14;;;;;;;31.10;27.70;;;17.50;99.90;;;;;;2114138;28;20122;-74
2022/09/08 00:37:15;;;;;;;30.33;27.00;;;17.50;99.90;;;;;;2122295;27;20030;-74
2022/09/08 00:38:16;;;;;;;30.92;27.52;;;17.50;99.90;;;;;;2122967;27;20062;-74
2022/09/08 00:39:16;;;;;;;30.67;27.35;;;17.50;99.90;;;;;;2113688;28;20032;-75
2022/09/08 00:40:17;;;;;;;31.35;27.95;;;17.50;99.90;;;;;;2113388;28;20069;-74
2022/09/08 00:41:22;;;;;;;30.50;26.60;;;17.50;99.90;;;;;;2123068;27;20050;-75
2022/09/08 00:42:23;;;;;;;31.02;27.75;;;17.50;99.90;;;;;;2122761;27;20023;-75
2022/09/08 00:43:42;;;;;;;32.67;27.65;;;17.50;99.90;;;;;;2123023;27;20761;-75
2022/09/08 00:44:51;;;;;;;32.95;27.85;;;17.50;99.90;;;;;;2119805;28;20027;-75
2022/09/08 00:45:51;;;;;;;32.60;27.92;;;17.50;99.90;;;;;;2108732;28;20551;-75
2022/09/08 00:46:55;;;;;;;31.23;27.80;;;17.50;99.90;;;;;;2114978;28;20032;-75
2022/09/08 00:48:02;;;;;;;32.50;28.42;;;17.50;99.90;;;;;;2114928;28;20497;-75
2022/09/08 00:49:12;;;;;;;31.15;27.70;;;17.50;99.90;;;;;;2115434;28;20042;-75
2022/09/08 00:50:18;;;;;;;30.83;27.50;;;17.50;99.90;;;;;;2122870;28;20438;-75
2022/09/08 00:51:21;;;;;;;31.42;27.67;;;17.50;99.90;;;;;;2123400;27;20053;-75
2022/09/08 00:52:24;;;;;;;31.70;27.67;;;17.50;99.90;;;;;;2122894;27;20084;-75
2022/09/08 00:53:25;;;;;;;31.70;28.25;;;17.40;99.90;;;;;;2123122;27;20023;-75
2022/09/08 00:54:26;;;;;;;32.85;27.50;;;17.50;99.90;;;;;;2122934;27;20035;-75
2022/09/08 00:55:34;;;;;;;32.00;28.30;;;17.50;99.90;;;;;;2114387;28;20020;-75
2022/09/08 00:56:35;;;;;;;31.73;28.23;;;17.50;99.90;;;;;;2115294;28;20032;-75
2022/09/08 00:57:36;;;;;;;32.30;28.80;;;17.50;99.90;;;;;;2114628;28;20070;-75
2022/09/08 00:58:38;;;;;;;32.72;29.20;;;17.50;99.90;;;;;;2129377;27;20038;-75
2022/09/08 00:59:39;;;;;;;31.55;28.02;;;17.40;99.90;;;;;;2131913;27;20023;-76
2022/09/08 01:00:42;;;;;;;32.90;28.73;;;17.40;99.90;;;;;;2131672;27;20033;-75
2022/09/08 01:01:42;;;;;;;32.38;28.85;;;17.40;99.90;;;;;;2114224;28;20042;-75
2022/09/08 01:02:47;;;;;;;32.75;29.15;;;17.40;99.90;;;;;;2113474;28;20023;-74
2022/09/08 01:03:48;;;;;;;32.78;28.52;;;17.40;99.90;;;;;;2121642;28;20031;-74
2022/09/08 01:04:51;;;;;;;31.10;27.80;;;17.40;99.90;;;;;;2113356;28;20039;-75
2022/09/08 01:06:01;;;;;;;31.67;27.70;;;17.40;99.90;;;;;;2121687;27;20037;-75
2022/09/08 01:13:20;;;;;;;32.22;28.73;;;17.40;99.90;;;;;;2121589;27;20160;-74
2022/09/08 01:14:49;;;;;;;33.17;29.10;;;17.40;99.90;;;;;;2122106;28;20027;-74
2022/09/08 01:15:50;;;;;;;33.53;28.77;;;17.30;99.90;;;;;;2123376;27;20064;-75
2022/09/08 01:16:50;;;;;;;31.70;28.30;;;17.30;99.90;;;;;;2115002;28;20097;-75
2022/09/08 01:17:54;;;;;;;31.25;27.92;;;17.30;99.90;;;;;;2114909;28;20053;-75
2022/09/08 01:18:56;;;;;;;33.50;29.67;;;17.30;99.90;;;;;;2123497;27;20027;-75
2022/09/08 01:19:59;;;;;;;32.30;28.58;;;17.30;99.90;;;;;;2123091;27;20489;-75
2022/09/08 01:21:08;;;;;;;33.40;29.17;;;17.30;99.90;;;;;;2124216;27;20023;-75
2022/09/08 01:22:26;;;;;;;33.97;29.00;;;17.30;99.90;;;;;;2124396;27;20504;-75
2022/09/08 01:23:36;;;;;;;32.72;28.45;;;17.30;99.90;;;;;;2122979;27;20065;-74
2022/09/08 01:24:50;;;;;;;33.25;28.80;;;17.30;99.90;;;;;;2123046;27;20031;-74
2022/09/08 01:26:19;;;;;;;33.65;28.13;;;17.30;99.90;;;;;;2123104;27;20031;-74
2022/09/08 01:27:30;;;;;;;32.88;28.48;;;17.20;99.90;;;;;;2123284;27;20121;-74
2022/09/08 01:28:44;;;;;;;32.30;27.70;;;17.20;99.90;;;;;;2122929;27;20110;-74
2022/09/08 01:29:45;;;;;;;31.33;27.98;;;17.20;99.90;;;;;;2122598;27;20056;-74
2022/09/08 01:30:49;;;;;;;32.53;28.80;;;17.20;99.90;;;;;;2122601;27;20513;-75
2022/09/08 01:31:52;;;;;;;36.22;30.48;;;17.20;99.90;;;;;;2123161;27;20027;-74
2022/09/08 01:32:53;;;;;;;34.88;30.20;;;17.20;99.90;;;;;;2114219;28;20103;-74
2022/09/08 01:33:54;;;;;;;36.17;30.60;;;17.20;99.90;;;;;;2105860;28;20596;-74
2022/09/08 01:34:55;;;;;;;35.72;31.13;;;17.20;99.90;;;;;;2123037;27;20023;-75
2022/09/08 01:35:55;;;;;;;35.17;30.45;;;17.30;99.90;;;;;;2123543;27;20044;-76
2022/09/08 01:36:59;;;;;;;34.75;30.15;;;17.30;99.90;;;;;;2123018;27;20504;-75
2022/09/08 01:38:00;;;;;;;35.10;30.48;;;17.30;99.90;;;;;;2114983;28;20024;-75
2022/09/08 01:39:01;;;;;;;36.20;30.67;;;17.20;99.90;;;;;;2114609;28;20412;-75
2022/09/08 01:40:03;;;;;;;33.47;29.05;;;17.20;99.90;;;;;;2113409;27;20078;-75
2022/09/08 01:41:05;;;;;;;34.38;30.33;;;17.20;99.90;;;;;;2123221;27;20191;-75
2022/09/08 01:42:06;;;;;;;35.00;30.65;;;17.20;99.90;;;;;;2129968;27;20476;-75
2022/09/08 01:43:08;;;;;;;34.22;30.00;;;17.10;99.90;;;;;;2132016;27;20061;-75
2022/09/08 01:44:08;;;;;;;33.67;29.65;;;17.20;99.90;;;;;;2123252;27;20369;-75
2022/09/08 01:45:09;;;;;;;33.83;29.63;;;17.10;99.90;;;;;;2123335;27;20023;-75
2022/09/08 01:46:10;;;;;;;34.40;29.88;;;17.10;99.90;;;;;;2123025;27;20019;-75
2022/09/08 01:47:12;;;;;;;33.03;28.77;;;17.10;99.90;;;;;;2124477;27;20453;-75
2022/09/08 01:48:14;;;;;;;32.17;28.65;;;17.10;99.90;;;;;;2118903;28;20047;-75
2022/09/08 01:49:18;;;;;;;31.38;27.98;;;17.10;99.90;;;;;;2118917;28;20024;-75
2022/09/08 01:50:20;;;;;;;33.00;28.42;;;17.10;99.90;;;;;;2118471;27;20035;-75
2022/09/08 01:51:21;;;;;;;34.00;29.38;;;17.10;99.90;;;;;;2126995;27;20030;-75
2022/09/08 01:52:22;;;;;;;33.47;29.88;;;17.10;99.90;;;;;;2136864;27;20038;-75
2022/09/08 01:53:23;;;;;;;32.63;28.73;;;17.10;99.90;;;;;;2134564;27;20022;-76
2022/09/08 01:54:23;;;;;;;32.65;29.13;;;17.10;99.90;;;;;;2135146;27;20097;-76
2022/09/08 01:55:25;;;;;;;32.42;28.85;;;17.10;99.90;;;;;;2133773;27;20091;-75
2022/09/08 01:56:26;;;;;;;34.15;29.70;;;17.10;99.90;;;;;;2134505;27;20022;-75
2022/09/08 01:57:57;;;;;;;33.45;29.67;;;17.10;99.90;;;;;;2133130;27;20592;-75
2022/09/08 01:58:58;;;;;;;33.05;29.38;;;17.00;99.90;;;;;;2117572;28;20060;-76
2022/09/08 02:00:20;;;;;;;33.35;28.92;;;17.00;99.90;;;;;;2118805;27;20061;-77
2022/09/08 02:01:20;;;;;;;32.60;29.08;;;17.00;99.90;;;;;;2120053;27;20066;-77
2022/09/08 02:02:21;;;;;;;32.95;29.20;;;17.00;99.90;;;;;;2119860;28;20085;-77
2022/09/08 02:03:22;;;;;;;31.90;28.45;;;17.00;99.90;;;;;;2118884;28;20027;-75
2022/09/08 02:04:34;;;;;;;33.65;29.30;;;17.00;99.90;;;;;;2118497;28;20035;-75
2022/09/08 02:05:40;;;;;;;33.85;30.08;;;17.00;99.90;;;;;;2121168;27;20032;-75
2022/09/08 02:06:41;;;;;;;36.50;30.00;;;17.00;99.90;;;;;;2118214;27;20047;-75
2022/09/08 02:07:42;;;;;;;32.20;28.70;;;17.00;99.90;;;;;;2117850;28;20058;-75
2022/09/08 02:08:43;;;;;;;35.17;30.63;;;17.00;99.90;;;;;;2118741;28;20072;-75
2022/09/08 02:09:45;;;;;;;31.90;28.35;;;17.00;99.90;;;;;;2119051;28;20112;-75
2022/09/08 02:10:53;;;;;;;33.83;30.05;;;17.10;99.90;;;;;;2117124;27;20042;-75
2022/09/08 02:11:54;;;;;;;32.70;29.20;;;17.00;99.90;;;;;;2123705;27;20031;-76
2022/09/08 02:12:55;;;;;;;33.65;29.40;;;17.00;99.90;;;;;;2123329;27;20023;-75
2022/09/08 02:13:56;;;;;;;34.10;29.83;;;17.00;99.90;;;;;;2114636;28;20094;-75
2022/09/08 02:14:56;;;;;;;34.47;29.73;;;17.00;99.90;;;;;;2114708;28;20095;-75
2022/09/08 02:16:02;;;;;;;34.28;29.33;;;17.00;99.90;;;;;;2123265;27;20064;-75
2022/09/08 02:17:03;;;;;;;32.80;29.10;;;17.00;99.90;;;;;;2124011;27;20384;-76
2022/09/08 02:18:04;;;;;;;35.90;30.65;;;17.00;99.90;;;;;;2123573;27;20102;-74
2022/09/08 02:19:06;;;;;;;36.42;31.63;;;17.00;99.90;;;;;;2123463;27;20079;-76
2022/09/08 02:20:07;;;;;;;36.97;31.20;;;17.00;99.90;;;;;;2123696;27;20443;-75
2022/09/08 02:21:14;;;;;;;36.10;31.15;;;17.00;99.90;;;;;;2123065;27;20019;-75
2022/09/08 02:22:14;;;;;;;34.85;30.00;;;17.00;99.90;;;;;;2123554;27;20034;-75
2022/09/08 02:23:15;;;;;;;36.10;30.40;;;17.00;99.90;;;;;;2124242;27;20433;-75
2022/09/08 02:24:15;;;;;;;34.70;30.60;;;17.00;99.90;;;;;;2123163;27;20031;-75
2022/09/08 02:25:16;;;;;;;36.20;29.48;;;17.00;99.90;;;;;;2123109;27;20045;-75
2022/09/08 02:26:20;;;;;;;35.22;31.00;;;17.00;99.90;;;;;;2123535;27;20031;-75
2022/09/08 02:27:21;;;;;;;35.85;29.90;;;17.00;99.90;;;;;;2123146;27;20061;-76
2022/09/08 02:28:21;;;;;;;35.63;30.17;;;17.00;99.90;;;;;;2115012;28;20624;-75
2022/09/08 02:29:23;;;;;;;34.88;30.50;;;17.00;99.90;;;;;;2117218;28;20019;-75
2022/09/08 02:30:24;;;;;;;33.95;29.67;;;17.00;99.90;;;;;;2123966;27;20019;-75
2022/09/08 02:31:27;;;;;;;32.83;29.23;;;17.00;99.90;;;;;;2124213;27;20054;-75
2022/09/08 02:32:30;;;;;;;33.75;29.60;;;16.90;99.90;;;;;;2123286;27;20120;-77
2022/09/08 02:33:31;;;;;;;32.35;28.85;;;16.90;99.90;;;;;;2123598;27;20041;-76
2022/09/08 02:34:32;;;;;;;33.53;29.92;;;16.90;99.90;;;;;;2124090;27;20102;-75
2022/09/08 02:35:32;;;;;;;33.03;29.33;;;16.90;99.90;;;;;;2123626;27;20393;-75
2022/09/08 02:36:33;;;;;;;34.05;29.13;;;16.90;99.90;;;;;;2131992;27;20513;-75
2022/09/08 02:37:34;;;;;;;33.83;29.45;;;16.90;99.90;;;;;;2129700;27;20140;-76
2022/09/08 02:38:35;;;;;;;34.28;29.52;;;16.90;99.90;;;;;;2123288;27;20057;-75
2022/09/08 02:39:39;;;;;;;32.33;28.83;;;16.90;99.90;;;;;;2114577;28;20027;-75
2022/09/08 02:40:40;;;;;;;34.92;30.05;;;16.90;99.90;;;;;;2114903;27;20478;-75
2022/09/08 02:41:41;;;;;;;33.90;30.15;;;16.90;99.90;;;;;;2114863;28;20118;-75
2022/09/08 02:42:44;;;;;;;33.13;29.02;;;16.90;99.90;;;;;;2123744;27;20023;-75
2022/09/08 02:43:45;;;;;;;34.55;29.67;;;16.90;99.90;;;;;;2123360;27;20054;-75
2022/09/08 02:44:45;;;;;;;31.80;28.42;;;16.90;99.90;;;;;;2114279;27;20046;-75
2022/09/08 02:45:46;;;;;;;32.28;28.77;;;16.90;99.90;;;;;;2123010;27;20035;-76
2022/09/08 02:46:47;;;;;;;33.60;29.15;;;16.90;99.90;;;;;;2124044;27;20061;-75
2022/09/08 02:47:47;;;;;;;31.67;28.35;;;16.90;99.90;;;;;;2123753;27;20461;-75
2022/09/08 02:48:48;;;;;;;31.15;27.70;;;16.90;99.90;;;;;;2124007;27;20031;-75
2022/09/08 02:49:48;;;;;;;32.55;29.00;;;16.90;99.90;;;;;;2123845;27;20027;-75
2022/09/08 02:50:49;;;;;;;33.35;28.70;;;16.90;99.90;;;;;;2124208;27;20489;-76
2022/09/08 02:51:50;;;;;;;32.28;28.23;;;16.90;99.90;;;;;;2125723;27;20035;-75
2022/09/08 02:52:50;;;;;;;31.35;28.02;;;16.90;99.90;;;;;;2115764;28;20051;-75
2022/09/08 02:53:53;;;;;;;32.60;28.23;;;16.90;99.90;;;;;;2123587;27;20024;-76
2022/09/08 02:54:54;;;;;;;31.02;27.70;;;16.90;99.90;;;;;;2124287;27;20088;-75
2022/09/08 02:55:54;;;;;;;33.70;28.70;;;16.90;99.90;;;;;;2124176;27;20019;-75
2022/09/08 02:56:55;;;;;;;33.03;28.85;;;16.80;99.90;;;;;;2123636;27;20031;-76
2022/09/08 02:57:56;;;;;;;32.47;28.45;;;16.80;99.90;;;;;;2123493;27;20047;-75
2022/09/08 02:59:04;;;;;;;33.90;28.08;;;16.80;99.90;;;;;;2123890;27;20042;-76
2022/09/08 03:00:05;;;;;;;33.60;29.48;;;16.80;99.90;;;;;;2123435;27;20502;-75
2022/09/08 03:01:06;;;;;;;32.85;28.55;;;16.80;99.90;;;;;;2122937;27;20076;-76
2022/09/08 03:02:07;;;;;;;33.38;29.05;;;16.80;99.90;;;;;;2124657;27;20027;-75
2022/09/08 03:03:07;;;;;;;32.05;28.48;;;16.80;99.90;;;;;;2123857;27;20042;-76
2022/09/08 03:04:08;;;;;;;31.15;27.80;;;16.80;99.90;;;;;;2123211;27;20090;-75
2022/09/08 03:05:09;;;;;;;31.80;28.08;;;16.80;99.90;;;;;;2123186;27;20421;-77
2022/09/08 03:06:10;;;;;;;32.22;28.30;;;16.80;99.90;;;;;;2122820;27;20023;-76
2022/09/08 03:07:10;;;;;;;32.38;28.70;;;16.80;99.90;;;;;;2114339;28;20031;-74
2022/09/08 03:08:12;;;;;;;31.95;28.20;;;16.70;99.90;;;;;;2123664;27;20115;-77
2022/09/08 03:09:13;;;;;;;31.33;28.00;;;16.80;99.90;;;;;;2122781;27;20019;-76
2022/09/08 03:10:14;;;;;;;32.03;28.63;;;16.80;99.90;;;;;;2122585;27;20031;-76
2022/09/08 03:11:16;;;;;;;31.38;27.92;;;16.80;99.90;;;;;;2123275;27;20026;-76
2022/09/08 03:12:17;;;;;;;32.63;28.90;;;16.70;99.90;;;;;;2124012;27;20482;-75
2022/09/08 03:13:18;;;;;;;31.70;28.17;;;16.70;99.90;;;;;;2114746;28;20020;-76
2022/09/08 03:14:18;;;;;;;33.00;28.42;;;16.70;99.90;;;;;;2114430;28;20041;-75
2022/09/08 03:15:20;;;;;;;31.92;28.42;;;16.70;99.90;;;;;;2114164;28;20035;-74
2022/09/08 03:16:21;;;;;;;31.83;28.42;;;16.70;99.90;;;;;;2122964;27;20051;-75
2022/09/08 03:17:22;;;;;;;33.03;28.88;;;16.70;99.90;;;;;;2123134;27;20023;-74
2022/09/08 03:18:23;;;;;;;30.88;27.50;;;16.70;99.90;;;;;;2123116;27;20023;-74
2022/09/08 03:19:24;;;;;;;32.75;29.23;;;16.70;99.90;;;;;;2123358;27;20094;-75
2022/09/08 03:20:25;;;;;;;32.47;28.92;;;16.70;99.90;;;;;;2122840;27;20019;-74
2022/09/08 03:21:26;;;;;;;30.95;27.63;;;16.70;99.90;;;;;;2122694;27;20395;-74
2022/09/08 03:22:26;;;;;;;32.10;28.58;;;16.70;99.90;;;;;;2123764;27;20022;-76
2022/09/08 03:23:28;;;;;;;29.98;26.75;;;16.70;99.90;;;;;;2122759;27;20027;-76
2022/09/08 03:24:31;;;;;;;33.40;29.45;;;16.70;99.90;;;;;;2122611;27;20413;-76
2022/09/08 03:25:36;;;;;;;32.95;29.02;;;16.70;99.90;;;;;;2114024;27;20036;-76
2022/09/08 03:26:37;;;;;;;34.67;28.20;;;16.70;99.90;;;;;;2122959;27;20015;-75
2022/09/08 03:27:39;;;;;;;35.53;28.35;;;16.70;99.90;;;;;;2122322;27;20036;-76
2022/09/08 03:28:40;;;;;;;31.98;27.50;;;16.70;99.90;;;;;;2122730;27;20038;-76
2022/09/08 03:29:41;;;;;;;32.17;28.45;;;16.70;99.90;;;;;;2122827;27;20109;-75
2022/09/08 03:30:41;;;;;;;32.03;28.10;;;16.70;99.90;;;;;;2122887;27;20069;-75
2022/09/08 03:31:42;;;;;;;31.88;28.08;;;16.70;99.90;;;;;;2123622;27;20031;-75
2022/09/08 03:32:44;;;;;;;31.75;28.30;;;16.70;99.90;;;;;;2125982;27;20015;-75
2022/09/08 03:33:46;;;;;;;31.80;28.40;;;16.70;99.90;;;;;;2131492;27;20720;-76
2022/09/08 03:34:46;;;;;;;33.75;29.27;;;16.70;99.90;;;;;;2131594;27;20827;-75
2022/09/08 03:35:47;;;;;;;34.45;29.02;;;16.70;99.90;;;;;;2131765;27;20027;-75
2022/09/08 03:36:48;;;;;;;30.80;27.25;;;16.70;99.90;;;;;;2131682;27;20019;-75
2022/09/08 03:37:48;;;;;;;30.70;27.40;;;16.70;99.90;;;;;;2131790;27;20027;-75
2022/09/08 03:38:49;;;;;;;32.17;28.42;;;16.70;99.90;;;;;;2130961;27;20048;-75
2022/09/08 03:39:51;;;;;;;30.83;27.55;;;16.70;99.90;;;;;;2130859;27;20513;-74
2022/09/08 03:40:51;;;;;;;33.05;27.98;;;16.60;99.90;;;;;;2122527;27;20122;-74
2022/09/08 03:41:52;;;;;;;31.77;28.35;;;16.60;99.90;;;;;;2131293;27;20022;-75
2022/09/08 03:42:52;;;;;;;31.88;28.48;;;16.70;99.90;;;;;;2131359;27;20031;-74
2022/09/08 03:43:53;;;;;;;31.85;28.00;;;16.60;99.90;;;;;;2131045;27;20026;-75
2022/09/08 03:44:54;;;;;;;32.10;27.63;;;16.60;99.90;;;;;;2131101;27;20022;-75
2022/09/08 03:45:54;;;;;;;31.35;27.95;;;16.60;99.90;;;;;;2130426;27;20159;-74
2022/09/08 03:46:55;;;;;;;31.70;27.77;;;16.60;99.90;;;;;;2131037;27;20047;-74
2022/09/08 03:47:55;;;;;;;31.05;27.63;;;16.60;99.90;;;;;;2131459;27;20033;-74
2022/09/08 03:48:56;;;;;;;31.45;28.02;;;16.60;99.90;;;;;;2130902;27;20022;-74
2022/09/08 03:49:57;;;;;;;31.83;28.08;;;16.60;99.90;;;;;;2130140;27;20022;-74
2022/09/08 03:51:08;;;;;;;30.48;27.17;;;16.50;99.90;;;;;;2105318;28;20035;-74
2022/09/08 03:52:08;;;;;;;31.27;27.00;;;16.50;99.90;;;;;;2115170;27;20020;-75
2022/09/08 03:53:11;;;;;;;29.92;26.65;;;16.50;99.90;;;;;;2122069;27;20077;-75
2022/09/08 03:55:31;;;;;;;28.73;25.63;;;16.50;99.90;;;;;;2122801;27;20075;-75
2022/09/08 03:56:32;;;;;;;30.45;27.13;;;16.50;99.90;;;;;;2123010;27;20027;-75
2022/09/08 03:57:33;;;;;;;30.85;26.98;;;16.50;99.90;;;;;;2122478;27;20114;-74
2022/09/08 03:58:34;;;;;;;30.38;26.92;;;16.50;99.90;;;;;;2127930;27;20023;-74
2022/09/08 03:59:34;;;;;;;30.23;26.90;;;16.50;99.90;;;;;;2131676;27;20048;-74
2022/09/08 04:00:35;;;;;;;29.38;26.17;;;16.50;99.90;;;;;;2131272;27;20025;-74
2022/09/08 04:01:36;;;;;;;30.27;26.80;;;16.50;99.90;;;;;;2132312;27;20037;-74
2022/09/08 04:02:37;;;;;;;29.58;26.42;;;16.50;99.90;;;;;;2131504;27;20066;-74
2022/09/08 04:03:38;;;;;;;32.80;26.58;;;16.50;99.90;;;;;;2130945;27;20087;-74
2022/09/08 04:04:39;;;;;;;29.60;26.17;;;16.50;99.90;;;;;;2131588;27;20045;-74
2022/09/08 04:05:39;;;;;;;30.23;26.88;;;16.50;99.90;;;;;;2120260;27;20562;-74
2022/09/08 04:06:40;;;;;;;30.13;26.75;;;16.50;99.90;;;;;;2105296;28;20027;-74
2022/09/08 04:07:41;;;;;;;30.95;26.80;;;16.50;99.90;;;;;;2122856;27;20040;-74
2022/09/08 04:08:41;;;;;;;30.38;27.08;;;16.50;99.90;;;;;;2113923;28;20370;-74
2022/09/08 04:09:42;;;;;;;29.73;26.52;;;16.50;99.90;;;;;;2122034;27;20118;-75
2022/09/08 04:10:43;;;;;;;29.77;26.38;;;16.50;99.90;;;;;;2122864;27;20031;-74
2022/09/08 04:11:43;;;;;;;29.58;26.38;;;16.50;99.90;;;;;;2113540;28;20084;-74
2022/09/08 04:12:44;;;;;;;29.27;26.13;;;16.50;99.90;;;;;;2115552;28;20039;-74
2022/09/08 04:13:46;;;;;;;30.67;27.38;;;16.50;99.90;;;;;;2113473;28;20071;-75
2022/09/08 04:14:48;;;;;;;30.23;25.15;;;16.50;99.90;;;;;;2113634;28;20434;-74
2022/09/08 04:15:49;;;;;;;28.95;25.48;;;16.50;99.90;;;;;;2122125;27;20394;-75
2022/09/08 04:16:49;;;;;;;30.65;25.63;;;16.50;99.90;;;;;;2113788;28;20060;-74
2022/09/08 04:17:50;;;;;;;28.25;24.33;;;16.50;99.90;;;;;;2105640;28;20020;-74
2022/09/08 04:18:51;;;;;;;28.92;24.88;;;16.50;99.90;;;;;;2122570;27;20027;-74
2022/09/08 04:19:52;;;;;;;29.73;26.58;;;16.60;99.90;;;;;;2122546;27;20031;-74
2022/09/08 04:21:01;;;;;;;29.52;26.33;;;16.60;99.90;;;;;;2122686;27;20047;-74
2022/09/08 04:22:03;;;;;;;28.90;25.73;;;16.60;99.90;;;;;;2124050;27;20031;-74
2022/09/08 04:23:04;;;;;;;29.85;26.33;;;16.60;99.90;;;;;;2128311;27;20043;-76
2022/09/08 04:24:09;;;;;;;28.55;25.45;;;16.60;99.90;;;;;;2120997;28;20062;-75
2022/09/08 04:25:15;;;;;;;30.85;26.10;;;16.60;99.90;;;;;;2121547;27;20020;-75
2022/09/08 04:26:16;;;;;;;30.45;26.65;;;16.70;99.90;;;;;;2126443;27;20111;-74
2022/09/08 04:27:17;;;;;;;30.77;26.52;;;16.60;99.90;;;;;;2122548;27;20049;-74
2022/09/08 04:28:18;;;;;;;29.98;26.67;;;16.70;99.90;;;;;;2119492;27;20381;-75
2022/09/08 04:29:19;;;;;;;28.42;25.40;;;16.60;99.90;;;;;;2114226;28;20035;-75
2022/09/08 04:30:20;;;;;;;28.83;25.27;;;16.70;99.90;;;;;;2122839;27;20019;-75
2022/09/08 04:31:22;;;;;;;28.60;24.83;;;16.70;99.90;;;;;;2114683;28;20027;-75
2022/09/08 04:32:22;;;;;;;28.80;25.45;;;16.70;99.90;;;;;;2114103;28;20078;-75
2022/09/08 04:33:23;;;;;;;28.55;25.45;;;16.70;99.90;;;;;;2114354;28;20094;-76
2022/09/08 04:34:24;;;;;;;30.60;26.42;;;16.70;99.90;;;;;;2117254;28;20446;-74
2022/09/08 04:35:36;;;;;;;29.58;25.90;;;16.70;99.90;;;;;;2117770;28;20038;-75
2022/09/08 04:36:48;;;;;;;29.23;25.48;;;16.70;99.90;;;;;;2117651;28;20119;-74
2022/09/08 04:37:49;;;;;;;29.83;26.40;;;16.70;99.90;;;;;;2115664;28;20028;-75
2022/09/08 04:38:54;;;;;;;29.38;25.42;;;16.70;99.90;;;;;;2117168;28;20033;-75
2022/09/08 04:39:54;;;;;;;28.50;25.40;;;16.80;99.90;;;;;;2118732;28;20011;-74
2022/09/08 04:41:08;;;;;;;28.40;25.40;;;16.80;99.90;;;;;;2116716;28;20028;-76
2022/09/08 04:42:09;;;;;;;28.90;25.73;;;16.80;99.90;;;;;;2123228;27;20027;-75
2022/09/08 04:43:13;;;;;;;28.05;25.05;;;16.80;99.90;;;;;;2117135;28;20086;-76
2022/09/08 04:44:16;;;;;;;27.20;24.33;;;16.80;99.90;;;;;;2118688;28;20087;-75
2022/09/08 04:45:19;;;;;;;27.52;24.58;;;16.80;99.90;;;;;;2119686;28;20058;-76
2022/09/08 04:46:23;;;;;;;27.38;24.45;;;16.80;99.90;;;;;;2120009;28;20051;-75
2022/09/08 04:47:27;;;;;;;30.15;25.20;;;16.90;99.90;;;;;;2128279;27;20015;-75
2022/09/08 04:48:31;;;;;;;27.90;23.45;;;16.80;99.90;;;;;;2127064;28;20055;-75
2022/09/08 04:49:31;;;;;;;27.02;24.10;;;16.90;99.90;;;;;;2126930;27;20042;-77
2022/09/08 04:50:32;;;;;;;27.00;24.05;;;16.80;99.90;;;;;;2127036;27;20058;-75
2022/09/08 04:51:33;;;;;;;26.67;23.67;;;16.90;99.90;;;;;;2116091;28;20046;-75
2022/09/08 04:52:34;;;;;;;27.02;24.13;;;16.90;99.90;;;;;;2117569;28;20035;-76
2022/09/08 04:53:38;;;;;;;26.52;23.65;;;16.90;99.90;;;;;;2117819;28;20026;-74
2022/09/08 04:54:40;;;;;;;29.30;24.27;;;16.90;99.90;;;;;;2101816;28;20027;-75
2022/09/08 04:55:41;;;;;;;27.75;23.70;;;17.00;99.90;;;;;;2110073;28;20144;-75
2022/09/08 04:56:42;;;;;;;26.95;23.10;;;17.00;99.90;;;;;;2107582;28;20028;-75
2022/09/08 04:57:43;;;;;;;25.55;22.48;;;17.00;99.90;;;;;;2107297;28;20028;-76
2022/09/08 04:58:45;;;;;;;25.85;22.63;;;17.00;99.90;;;;;;2108353;28;20411;-75
2022/09/08 04:59:46;;;;;;;27.83;22.45;;;17.00;99.90;;;;;;2117283;28;20024;-76
2022/09/08 05:00:50;;;;;;;26.10;23.25;;;17.10;99.90;;;;;;2118173;28;20066;-75
2022/09/08 05:01:50;;;;;;;25.67;22.17;;;17.10;99.90;;;;;;2116140;28;20050;-76
2022/09/08 05:02:51;;;;;;;25.50;21.92;;;17.10;99.90;;;;;;2116278;28;20062;-75
2022/09/08 05:03:54;;;;;;;23.67;21.27;;;17.10;99.90;;;;;;2113266;28;20020;-75
2022/09/08 05:04:55;;;;;;;26.00;21.85;;;17.10;99.90;;;;;;2114542;28;20472;-75
2022/09/08 05:05:55;;;;;;;24.95;21.35;;;17.20;99.90;;;;;;2114505;28;20020;-75
2022/09/08 05:06:56;;;;;;;24.50;21.83;;;17.20;99.90;;;;;;2114819;28;20118;-75
2022/09/08 05:07:57;;;;;;;23.42;20.92;;;17.20;99.90;;;;;;2115690;28;20083;-74
2022/09/08 05:08:59;;;;;;;23.52;21.02;;;17.20;99.90;;;;;;2114777;28;20566;-75
2022/09/08 05:10:01;;;;;;;23.30;20.67;;;17.20;99.90;;;;;;2114701;28;20390;-75
2022/09/08 05:11:02;;;;;;;23.80;21.20;;;17.20;99.90;;;;;;2115056;28;20388;-74
2022/09/08 05:12:03;;;;;;;23.63;21.02;;;17.20;99.90;;;;;;2114459;28;20516;-74
2022/09/08 05:13:04;;;;;;;24.33;21.58;;;17.20;99.90;;;;;;2122192;28;20061;-74
2022/09/08 05:14:04;;;;;;;23.48;20.85;;;17.30;99.90;;;;;;2122008;28;20102;-74
2022/09/08 05:15:06;;;;;;;25.77;21.10;;;17.30;99.90;;;;;;2114826;28;20086;-74
2022/09/08 05:16:09;;;;;;;25.10;22.40;;;17.30;99.90;;;;;;2114350;28;20024;-74
2022/09/08 05:17:10;;;;;;;27.10;23.35;;;17.20;99.90;;;;;;2114002;28;20440;-74
2022/09/08 05:18:11;;;;;;;25.83;22.60;;;17.30;99.90;;;;;;2114156;28;20024;-74
2022/09/08 05:19:12;;;;;;;25.90;23.05;;;17.30;99.90;;;;;;2113867;28;20027;-74
2022/09/08 05:20:12;;;;;;;24.40;21.80;;;17.30;99.90;;;;;;2112859;28;20127;-74
2022/09/08 05:21:13;;;;;;;25.08;22.38;;;17.30;99.90;;;;;;2113256;28;20381;-74
2022/09/08 05:22:14;;;;;;;23.30;20.55;;;17.30;99.90;;;;;;2121311;27;20057;-74
2022/09/08 05:23:15;;;;;;;24.00;21.00;;;17.30;99.90;;;;;;2121264;28;20027;-75
2022/09/08 05:24:15;;;;;;;24.77;21.13;;;17.30;99.90;;;;;;2114581;27;20534;-72